Time;durP1;ratioP1;P1;durP2;ratioP2;P2;SDS_P1;SDS_P2;PMS_P1;PMS_P2;Temp;Humidity;BMP_temperature;BMP_pressure;BME280_temperature;BME280_humidity;BME280_pressure;Samples;Min_cycle;Max_cycle;Signal;HPM_P1;HPM_P2
2023/03/02 00:01:07;;;;;;;31.73;24.73;;;2.10;99.90;;;2.71;76.37;98022.19;5239375;28;20295;-62
2023/03/02 00:03:41;;;;;;;31.43;24.97;;;2.20;99.90;;;2.66;76.66;98013.34;5239209;28;20199;-61
2023/03/02 00:06:16;;;;;;;32.27;25.17;;;2.10;99.90;;;2.61;76.96;98018.75;5240125;28;20204;-61
2023/03/02 00:08:49;;;;;;;31.43;25.03;;;2.10;99.90;;;2.70;76.26;98019.56;5242030;28;20279;-61
2023/03/02 00:11:22;;;;;;;34.70;26.00;;;2.20;99.90;;;2.63;77.17;98010.56;5233245;28;20293;-61
2023/03/02 00:13:55;;;;;;;33.03;25.47;;;2.10;99.90;;;2.68;76.50;98011.84;5238420;28;20317;-62
2023/03/02 00:16:28;;;;;;;31.40;25.17;;;2.20;99.90;;;2.50;77.48;98012.72;5232914;28;20750;-62
2023/03/02 00:19:03;;;;;;;33.10;26.77;;;2.10;99.90;;;2.51;77.97;98006.91;5240765;28;20845;-62
2023/03/02 00:21:37;;;;;;;35.43;27.00;;;2.10;99.90;;;2.46;78.19;98014.09;5235458;28;20207;-62
2023/03/02 00:24:10;;;;;;;32.50;26.00;;;2.10;99.90;;;2.44;78.49;98014.69;5235835;28;20326;-62
2023/03/02 00:26:43;;;;;;;31.90;26.33;;;2.00;99.90;;;2.45;78.21;98012.28;5240542;28;20221;-62
2023/03/02 00:29:16;;;;;;;34.50;26.33;;;2.00;99.90;;;2.40;78.38;98012.63;5235939;28;20293;-62
2023/03/02 00:31:49;;;;;;;32.60;26.00;;;2.00;99.90;;;2.50;77.83;98010.19;5239577;28;20770;-62
2023/03/02 00:34:23;;;;;;;30.20;25.13;;;2.00;99.90;;;2.52;78.07;98008.72;5236830;28;20222;-63
2023/03/02 00:36:57;;;;;;;32.87;25.87;;;2.00;99.90;;;2.38;78.50;98001.53;5230176;28;20208;-63
2023/03/02 00:39:30;;;;;;;32.37;26.70;;;2.00;99.90;;;2.46;78.35;97993.00;5237087;28;20699;-61
2023/03/02 00:42:04;;;;;;;30.67;25.43;;;2.00;99.90;;;2.73;77.48;97996.25;5237479;28;20204;-61
2023/03/02 00:44:37;;;;;;;32.43;25.37;;;2.10;99.90;;;2.49;78.20;98005.91;5240911;28;20501;-61
2023/03/02 00:47:10;;;;;;;31.50;25.37;;;2.10;99.90;;;2.56;77.37;98009.88;5237917;28;20276;-61
2023/03/02 00:49:47;;;;;;;31.90;25.47;;;2.10;99.90;;;2.56;77.72;98005.69;5236882;28;20305;-59
2023/03/02 00:52:22;;;;;;;32.83;25.93;;;2.10;99.90;;;2.48;78.26;98001.59;5247690;28;20288;-61
2023/03/02 00:54:55;;;;;;;34.60;26.43;;;2.00;99.90;;;2.54;77.72;97992.03;5243449;28;20254;-59
2023/03/02 00:57:28;;;;;;;32.50;24.73;;;2.00;99.90;;;2.57;77.78;97996.50;5239825;28;20626;-61
2023/03/02 01:00:01;;;;;;;35.00;26.43;;;2.00;99.90;;;2.46;77.95;98003.09;5231154;28;20201;-62
2023/03/02 01:02:34;;;;;;;29.73;25.67;;;1.90;99.90;;;2.64;77.00;97992.13;5234047;28;20241;-61
2023/03/02 01:05:08;;;;;;;32.33;25.37;;;2.00;99.90;;;2.46;77.68;97993.00;5233155;28;20206;-59
2023/03/02 01:07:43;;;;;;;32.13;25.93;;;1.90;99.90;;;2.48;77.90;97994.03;5232410;28;20253;-60
2023/03/02 01:10:16;;;;;;;31.73;24.90;;;1.90;99.90;;;2.43;78.67;97987.69;5241132;28;20200;-60
2023/03/02 01:12:49;;;;;;;34.80;26.00;;;1.80;99.90;;;2.37;78.86;97985.47;5236952;28;20250;-60
2023/03/02 01:15:22;;;;;;;32.03;25.60;;;1.80;99.90;;;2.27;79.27;97980.38;5229451;28;20225;-62
2023/03/02 01:17:56;;;;;;;34.17;26.37;;;1.70;99.90;;;2.29;78.51;97973.84;5229778;28;20333;-61
2023/03/02 01:20:29;;;;;;;31.73;25.23;;;1.70;99.90;;;2.23;78.74;97979.22;5228557;28;20289;-60
2023/03/02 01:23:03;;;;;;;35.03;25.87;;;1.70;99.90;;;2.15;78.66;97975.13;5239881;28;20206;-62
2023/03/02 01:25:37;;;;;;;32.70;25.87;;;1.60;99.90;;;2.39;78.45;97973.91;5240082;28;20708;-59
2023/03/02 01:28:10;;;;;;;31.23;25.00;;;1.70;99.90;;;2.30;78.41;97972.22;5228399;28;20563;-60
2023/03/02 01:30:44;;;;;;;31.07;24.90;;;1.70;99.90;;;2.25;79.35;97972.66;5233247;28;20216;-61
2023/03/02 01:33:17;;;;;;;31.20;26.03;;;1.60;99.90;;;2.21;79.11;97972.25;5243215;28;20329;-60
2023/03/02 01:35:50;;;;;;;33.00;25.27;;;1.60;99.90;;;2.22;79.79;97972.38;5234426;28;20294;-60
2023/03/02 01:38:24;;;;;;;31.90;24.53;;;1.60;99.90;;;2.23;79.43;97971.66;5240546;28;20322;-62
2023/03/02 01:40:58;;;;;;;32.97;25.10;;;1.60;99.90;;;2.14;79.55;97968.28;5241420;28;20213;-60
2023/03/02 01:43:31;;;;;;;32.40;24.77;;;1.60;99.90;;;2.07;80.58;97971.00;5234926;28;20229;-61
2023/03/02 01:46:10;;;;;;;31.93;24.87;;;1.50;99.90;;;2.17;78.96;97958.47;5243068;28;20646;-60
2023/03/02 01:48:49;;;;;;;32.67;25.80;;;1.50;99.90;;;2.18;79.17;97962.78;5237151;28;20226;-60
2023/03/02 01:51:25;;;;;;;32.87;25.30;;;1.50;99.90;;;2.12;80.51;97953.75;5234296;28;20207;-60
2023/03/02 01:54:04;;;;;;;32.87;25.73;;;1.50;99.90;;;2.14;79.72;97948.09;5244574;28;20228;-59
2023/03/02 01:56:40;;;;;;;32.17;25.40;;;1.50;99.90;;;2.22;79.47;97949.69;5238577;28;20288;-62
2023/03/02 01:59:19;;;;;;;35.27;25.23;;;1.60;99.90;;;2.28;79.20;97944.31;5234376;28;21583;-62
2023/03/02 02:01:55;;;;;;;31.40;25.47;;;1.60;99.90;;;2.23;79.65;97938.88;5230969;28;20296;-61
2023/03/02 02:04:30;;;;;;;33.03;26.70;;;1.60;99.90;;;2.06;80.49;97944.03;5228058;28;20206;-61
2023/03/02 02:07:07;;;;;;;30.77;24.33;;;1.40;99.90;;;2.13;79.47;97930.34;5226429;28;20235;-62
2023/03/02 02:09:46;;;;;;;31.30;27.03;;;1.50;99.90;;;2.07;80.12;97928.16;5225911;28;20674;-62
2023/03/02 02:12:22;;;;;;;32.77;25.40;;;1.40;99.90;;;2.19;79.59;97928.38;5227840;28;20204;-60
2023/03/02 02:14:59;;;;;;;35.67;26.30;;;1.50;99.90;;;2.07;80.34;97929.78;5231387;28;20236;-59
2023/03/02 02:17:32;;;;;;;36.20;26.73;;;1.40;99.90;;;1.99;80.29;97927.44;5239402;28;20720;-62
2023/03/02 02:20:19;;;;;;;32.47;25.17;;;1.40;99.90;;;2.02;80.27;97934.41;5241805;28;20281;-60
2023/03/02 02:23:26;;;;;;;32.00;24.77;;;1.30;99.90;;;1.94;81.01;97922.72;5246646;28;20266;-61
2023/03/02 02:26:17;;;;;;;32.37;25.30;;;1.30;99.90;;;2.02;80.56;97931.88;5238152;28;20197;-62
2023/03/02 02:28:57;;;;;;;32.90;25.43;;;1.40;99.90;;;2.06;80.50;97917.91;5235260;28;20750;-61
2023/03/02 02:31:38;;;;;;;38.67;25.93;;;1.30;99.90;;;2.06;79.61;97916.31;5241073;28;20295;-61
2023/03/02 02:34:21;;;;;;;30.93;24.53;;;1.40;99.90;;;2.09;79.96;97916.59;5232262;28;20305;-61
2023/03/02 02:36:59;;;;;;;32.70;25.03;;;1.40;99.90;;;2.13;80.53;97916.09;5239264;28;20665;-62
2023/03/02 02:39:37;;;;;;;33.63;25.80;;;1.30;99.90;;;2.03;80.79;97909.34;5235669;28;20197;-62
2023/03/02 02:42:15;;;;;;;33.27;24.97;;;1.30;99.90;;;2.06;80.23;97908.75;5235333;28;20209;-61
2023/03/02 02:44:49;;;;;;;33.33;25.03;;;1.30;99.90;;;2.21;80.21;97917.69;5242778;28;20205;-61
2023/03/02 02:47:22;;;;;;;35.40;25.90;;;1.40;99.90;;;2.05;80.61;97916.16;5238890;28;20272;-62
2023/03/02 02:49:57;;;;;;;37.73;26.83;;;1.40;99.90;;;1.89;81.17;97919.81;5235480;28;20237;-61
2023/03/02 02:52:30;;;;;;;33.70;24.67;;;1.20;99.90;;;1.85;81.09;97917.75;5241433;28;20204;-62
2023/03/02 02:55:03;;;;;;;33.97;25.67;;;1.10;99.90;;;1.90;80.61;97914.00;5237094;28;20695;-60
2023/03/02 02:57:38;;;;;;;35.67;26.13;;;1.10;99.90;;;1.68;81.08;97921.25;5232894;28;20310;-62
2023/03/02 03:00:19;;;;;;;32.20;25.13;;;1.00;99.90;;;1.65;81.71;97915.91;5235407;28;20361;-62
2023/03/02 03:02:57;;;;;;;34.27;25.37;;;0.90;99.90;;;1.49;82.97;97906.09;5233214;28;20684;-61
2023/03/02 03:05:30;;;;;;;33.47;26.30;;;0.80;99.90;;;1.42;83.01;97903.72;5243020;28;20283;-61
2023/03/02 03:08:09;;;;;;;35.93;26.13;;;0.70;99.90;;;1.48;82.79;97903.41;5239059;28;20337;-61
2023/03/02 03:10:44;;;;;;;35.67;25.63;;;0.80;99.90;;;1.46;82.79;97894.81;5243927;28;20295;-62
2023/03/02 03:13:18;;;;;;;35.97;26.53;;;0.80;99.90;;;1.48;83.23;97904.28;5233867;28;20718;-61
2023/03/02 03:15:51;;;;;;;32.93;25.70;;;0.70;99.90;;;1.26;83.86;97900.53;5232470;28;20319;-60
2023/03/02 03:18:24;;;;;;;39.20;27.00;;;0.60;99.90;;;1.24;83.93;97907.94;5239575;28;20587;-61
2023/03/02 03:20:58;;;;;;;34.10;26.10;;;0.60;99.90;;;1.31;83.60;97895.19;5242918;28;20339;-61
2023/03/02 03:23:31;;;;;;;34.77;26.57;;;0.60;99.90;;;1.26;83.85;97896.41;5236037;28;20725;-62
2023/03/02 03:26:05;;;;;;;41.60;29.93;;;0.60;99.90;;;1.38;83.64;97891.63;5239037;28;20618;-62
2023/03/02 03:28:39;;;;;;;36.43;26.47;;;0.60;99.90;;;1.41;83.31;97896.94;5238233;28;20514;-62
2023/03/02 03:31:13;;;;;;;35.20;27.37;;;0.70;99.90;;;1.42;83.54;97905.38;5238348;28;20246;-62
2023/03/02 03:33:46;;;;;;;35.70;26.43;;;0.70;99.90;;;1.43;83.36;97894.53;5240767;28;20595;-62
2023/03/02 03:36:19;;;;;;;33.93;25.87;;;0.70;99.90;;;1.37;83.59;97893.97;5238422;28;20220;-62
2023/03/02 03:38:52;;;;;;;36.70;25.43;;;0.60;99.90;;;1.25;84.01;97899.66;5239830;28;20652;-62
2023/03/02 03:41:25;;;;;;;30.80;25.13;;;0.50;99.90;;;1.13;84.57;97898.50;5233641;28;20201;-62
2023/03/02 03:44:00;;;;;;;33.07;25.90;;;0.50;99.90;;;1.18;84.56;97898.94;5229613;28;20232;-62
2023/03/02 03:46:33;;;;;;;33.13;26.10;;;0.40;99.90;;;1.09;85.03;97907.41;5233584;28;20196;-62
2023/03/02 03:49:07;;;;;;;32.10;25.63;;;0.40;99.90;;;1.06;84.78;97891.13;5239917;28;22121;-62
2023/03/02 03:51:40;;;;;;;35.97;26.80;;;0.40;99.90;;;1.03;85.46;97905.94;5241877;28;20208;-62
2023/03/02 03:54:14;;;;;;;33.67;25.70;;;0.40;99.90;;;0.97;85.69;97887.75;5236824;28;20289;-62
2023/03/02 03:56:49;;;;;;;33.27;25.07;;;0.30;99.90;;;1.12;85.09;97892.59;5239578;28;20321;-62
2023/03/02 03:59:25;;;;;;;33.90;25.77;;;0.40;99.90;;;1.03;85.41;97895.88;5238520;28;20227;-61
2023/03/02 04:02:02;;;;;;;31.63;24.80;;;0.40;99.90;;;1.08;85.19;97894.66;5240394;28;20219;-61
2023/03/02 04:04:35;;;;;;;33.50;25.63;;;0.30;99.90;;;1.00;85.16;97900.59;5239516;28;20250;-61
2023/03/02 04:07:09;;;;;;;32.17;25.30;;;0.30;99.90;;;0.94;85.86;97902.56;5241970;28;20227;-62
2023/03/02 04:09:42;;;;;;;32.27;24.17;;;0.20;99.90;;;0.94;85.57;97895.88;5238370;28;20205;-61
2023/03/02 04:12:15;;;;;;;34.70;25.80;;;0.20;99.90;;;0.93;85.90;97905.81;5237680;28;20261;-62
2023/03/02 04:14:50;;;;;;;33.23;23.67;;;0.20;99.90;;;0.82;85.64;97904.81;5243224;28;20299;-62
2023/03/02 04:17:23;;;;;;;35.70;25.93;;;0.10;99.90;;;0.73;86.46;97912.38;5228443;28;20315;-62
2023/03/02 04:19:56;;;;;;;31.47;24.47;;;0.00;99.90;;;0.75;86.55;97912.53;5239171;28;20215;-62
2023/03/02 04:22:29;;;;;;;33.03;25.33;;;0.00;99.90;;;0.70;86.62;97909.56;5237417;28;20247;-62
2023/03/02 04:25:03;;;;;;;36.60;26.17;;;0.00;99.90;;;0.71;86.86;97916.34;5232857;28;20290;-61
2023/03/02 04:27:36;;;;;;;35.10;24.73;;;0.00;99.90;;;0.80;86.75;97914.75;5238762;28;20272;-62
2023/03/02 04:30:13;;;;;;;30.10;24.03;;;0.00;99.90;;;0.75;86.55;97915.91;5231625;28;20327;-61
2023/03/02 04:32:47;;;;;;;30.03;23.53;;;-0.10;99.90;;;0.74;86.34;97915.75;5236673;28;20210;-62
2023/03/02 04:35:20;;;;;;;32.87;23.73;;;-0.10;99.90;;;0.57;85.72;97915.06;5235004;28;20641;-62
2023/03/02 04:37:53;;;;;;;37.20;25.77;;;-0.20;99.90;;;0.56;86.07;97915.78;5238945;28;20228;-62
2023/03/02 04:40:27;;;;;;;31.73;24.97;;;-0.20;99.90;;;0.54;86.92;97916.38;5233740;28;20760;-61
2023/03/02 04:43:00;;;;;;;32.57;23.97;;;-0.20;99.90;;;0.52;86.85;97917.88;5237462;28;20289;-61
2023/03/02 04:45:34;;;;;;;35.43;25.63;;;-0.20;99.90;;;0.50;88.08;97921.84;5232429;28;20203;-60
2023/03/02 04:48:08;;;;;;;46.20;30.10;;;-0.30;99.90;;;0.41;88.22;97915.19;5239893;28;20571;-61
2023/03/02 04:50:41;;;;;;;54.40;33.83;;;-0.30;99.90;;;0.43;88.22;97917.88;5236140;28;20273;-61
2023/03/02 04:53:14;;;;;;;45.97;31.50;;;-0.30;99.90;;;0.48;87.54;97925.84;5226583;28;20256;-62
2023/03/02 04:55:47;;;;;;;49.03;29.93;;;-0.30;99.90;;;0.48;87.63;97911.63;5244021;28;20248;-61
2023/03/02 04:58:21;;;;;;;46.73;29.73;;;-0.30;99.90;;;0.38;87.21;97914.91;5229475;28;20268;-62
2023/03/02 05:01:02;;;;;;;46.80;29.37;;;-0.40;99.90;;;0.38;87.80;97917.41;5236109;28;20749;-62
2023/03/02 05:03:35;;;;;;;44.87;30.07;;;-0.40;99.90;;;0.38;88.11;97927.47;5245071;28;20230;-62
2023/03/02 05:06:09;;;;;;;45.37;29.97;;;-0.40;99.90;;;0.34;88.34;97925.38;5239573;28;20239;-61
2023/03/02 05:08:42;;;;;;;36.03;25.53;;;-0.50;99.90;;;0.33;87.63;97923.63;5235468;28;20226;-62
2023/03/02 05:11:28;;;;;;;39.90;26.77;;;-0.50;99.90;;;0.28;87.94;97922.28;5238484;28;20240;-62
2023/03/02 05:14:06;;;;;;;33.63;26.20;;;-0.50;99.90;;;0.23;88.08;97915.94;5245230;28;20281;-61
2023/03/02 05:16:42;;;;;;;34.40;25.17;;;-0.60;99.90;;;0.30;88.03;97920.81;5237715;28;20233;-62
2023/03/02 05:19:15;;;;;;;34.63;25.23;;;-0.60;99.90;;;0.26;88.07;97922.88;5237157;28;20696;-61
2023/03/02 05:21:48;;;;;;;35.67;25.97;;;-0.70;99.90;;;0.05;87.21;97907.47;5238962;28;20299;-62
2023/03/02 05:24:22;;;;;;;35.83;26.73;;;-0.80;99.90;;;0.04;88.21;97917.41;5237647;28;20204;-61
2023/03/02 05:26:55;;;;;;;37.30;26.90;;;-0.80;99.90;;;0.02;89.03;97908.81;5240574;28;20202;-62
2023/03/02 05:29:28;;;;;;;34.90;24.90;;;-0.80;99.90;;;-0.01;88.20;97907.75;5238432;28;20206;-62
2023/03/02 05:32:02;;;;;;;38.87;26.23;;;-0.80;99.90;;;0.01;88.31;97914.59;5246866;28;20693;-61
2023/03/02 05:34:35;;;;;;;41.13;28.37;;;-0.80;99.90;;;-0.03;89.30;97909.25;5236391;28;20581;-61
2023/03/02 05:37:08;;;;;;;40.17;27.73;;;-0.80;99.90;;;-0.05;89.01;97910.72;5238687;28;20312;-61
2023/03/02 05:39:41;;;;;;;43.23;28.47;;;-0.80;99.90;;;-0.08;89.27;97915.47;5239093;28;20226;-61
2023/03/02 05:42:14;;;;;;;39.90;27.80;;;-0.90;99.90;;;-0.08;88.96;97917.09;5245218;28;20292;-60
2023/03/02 05:44:47;;;;;;;36.43;25.73;;;-0.90;99.90;;;-0.04;88.59;97914.13;5240299;28;20306;-61
2023/03/02 05:47:22;;;;;;;34.57;26.53;;;-0.90;99.90;;;-0.07;88.41;97911.31;5235656;28;20218;-61
2023/03/02 05:49:55;;;;;;;40.17;28.63;;;-0.90;99.90;;;-0.19;88.85;97913.50;5239177;28;20377;-61
2023/03/02 05:52:28;;;;;;;37.87;27.87;;;-1.00;99.90;;;-0.19;88.75;97922.66;5239963;28;20570;-61
2023/03/02 05:55:01;;;;;;;42.77;28.80;;;-1.00;99.90;;;-0.19;90.10;97918.53;5234161;28;20734;-61
2023/03/02 05:57:34;;;;;;;36.80;26.43;;;-1.00;99.90;;;-0.15;90.07;97923.09;5240175;28;20291;-61
2023/03/02 06:00:10;;;;;;;39.13;27.43;;;-1.00;99.90;;;-0.15;89.70;97922.22;5238930;28;20202;-61
2023/03/02 06:02:45;;;;;;;34.43;26.07;;;-1.00;99.90;;;-0.24;90.79;97923.09;5241551;28;20324;-61
2023/03/02 06:05:21;;;;;;;37.20;27.30;;;-1.00;99.90;;;-0.21;89.79;97937.56;5238017;28;20647;-62
2023/03/02 06:07:54;;;;;;;35.60;26.20;;;-1.00;99.90;;;-0.21;90.31;97931.66;5241876;28;20218;-61
2023/03/02 06:10:28;;;;;;;41.03;27.57;;;-1.00;99.90;;;-0.27;90.58;97939.47;5252049;28;20206;-61
2023/03/02 06:13:01;;;;;;;36.37;26.37;;;-1.00;99.90;;;-0.25;90.93;97935.50;5245504;28;20255;-61
2023/03/02 06:15:34;;;;;;;37.57;26.50;;;-1.00;99.90;;;-0.21;89.70;97937.56;5239719;28;20530;-61
2023/03/02 06:18:11;;;;;;;35.73;26.23;;;-1.00;99.90;;;-0.22;90.00;97943.34;5236881;28;20770;-62
2023/03/02 06:20:44;;;;;;;36.13;25.63;;;-1.00;99.90;;;-0.15;91.00;97942.31;5233886;28;20234;-62
2023/03/02 06:23:17;;;;;;;38.70;27.93;;;-0.90;99.90;;;-0.19;89.75;97946.16;5237322;28;20259;-61
2023/03/02 06:25:50;;;;;;;36.23;25.87;;;-0.90;99.90;;;-0.16;89.70;97945.56;5245799;28;20376;-61
2023/03/02 06:28:24;;;;;;;35.87;27.23;;;-1.00;99.90;;;-0.11;90.24;97954.47;5241629;28;20757;-62
2023/03/02 06:30:59;;;;;;;40.57;27.53;;;-0.90;99.90;;;-0.06;90.23;97944.13;5239237;28;20248;-62
2023/03/02 06:33:33;;;;;;;35.73;27.13;;;-0.90;99.90;;;0.06;89.64;97946.03;5241505;28;20209;-64
2023/03/02 06:36:06;;;;;;;40.33;29.17;;;-0.80;99.90;;;0.21;88.90;97952.59;5249438;28;20216;-59
2023/03/02 06:38:40;;;;;;;39.23;28.50;;;-0.80;99.90;;;0.25;88.71;97952.16;5236605;28;20255;-61
2023/03/02 06:41:13;;;;;;;41.33;30.60;;;-0.70;99.90;;;0.35;89.64;97953.94;5245882;28;20683;-61
2023/03/02 06:43:46;;;;;;;39.73;29.70;;;-0.60;99.90;;;0.44;88.49;97950.69;5232051;28;20203;-61
2023/03/02 06:46:19;;;;;;;42.63;28.83;;;-0.50;99.90;;;0.61;89.33;97953.94;5232078;28;20299;-60
2023/03/02 06:48:54;;;;;;;39.17;29.43;;;-0.40;99.90;;;0.87;87.72;97957.31;5232759;28;20607;-60
2023/03/02 06:51:27;;;;;;;35.43;28.30;;;-0.20;99.90;;;1.01;87.87;97957.75;5233179;28;20757;-60
2023/03/02 06:54:00;;;;;;;42.70;28.93;;;-0.10;99.90;;;1.24;86.96;97948.22;5240564;28;20291;-59
2023/03/02 06:56:33;;;;;;;39.30;28.13;;;0.10;99.90;;;1.37;86.20;97952.78;5239187;28;20228;-60
2023/03/02 06:59:07;;;;;;;38.00;28.17;;;0.20;99.90;;;1.41;86.25;97956.47;5236913;28;20220;-60
2023/03/02 07:01:40;;;;;;;38.97;28.40;;;0.40;99.90;;;1.65;84.87;97962.91;5238542;28;20659;-61
2023/03/02 07:04:15;;;;;;;35.20;26.23;;;0.60;99.90;;;1.77;85.08;97966.53;5239905;28;20287;-59
2023/03/02 07:06:48;;;;;;;34.13;25.80;;;0.70;99.90;;;1.94;83.29;97965.56;5240882;28;20438;-60
2023/03/02 07:09:22;;;;;;;36.80;26.50;;;0.80;99.90;;;2.03;83.00;97969.84;5235822;28;20251;-60
2023/03/02 07:11:55;;;;;;;36.03;27.90;;;0.90;99.90;;;2.27;81.83;97974.44;5237823;28;20288;-60
2023/03/02 07:14:28;;;;;;;34.23;27.87;;;1.00;99.90;;;2.36;81.42;97965.19;5242818;28;20228;-59
2023/03/02 07:17:01;;;;;;;33.47;26.60;;;1.20;99.90;;;2.53;81.49;97970.09;5240546;28;20652;-60
2023/03/02 07:19:37;;;;;;;34.37;26.93;;;1.30;99.90;;;2.73;80.31;97968.47;5230342;28;20295;-60
2023/03/02 07:22:12;;;;;;;37.30;28.67;;;1.40;99.90;;;2.90;79.21;97978.41;5235223;28;20613;-60
2023/03/02 07:24:45;;;;;;;35.73;28.33;;;1.60;99.90;;;3.12;78.35;97971.97;5240445;28;20314;-59
2023/03/02 07:27:18;;;;;;;38.53;29.67;;;1.80;99.90;;;3.19;77.58;97962.41;5240138;28;20656;-60
2023/03/02 07:29:51;;;;;;;36.40;30.03;;;1.90;99.90;;;3.38;76.92;97966.66;5238363;28;20246;-59
2023/03/02 07:32:25;;;;;;;40.53;30.63;;;2.00;99.90;;;3.33;77.02;97964.50;5239950;28;20194;-59
2023/03/02 07:34:59;;;;;;;35.50;28.50;;;2.10;99.90;;;3.39;76.77;97967.53;5242229;28;20203;-59
2023/03/02 07:37:32;;;;;;;40.73;30.00;;;2.20;99.90;;;3.67;75.63;97965.75;5241079;28;20304;-59
2023/03/02 07:40:07;;;;;;;34.27;28.17;;;2.40;99.90;;;4.02;74.33;97966.16;5242560;28;20293;-61
2023/03/02 07:42:40;;;;;;;36.10;28.17;;;2.60;99.90;;;4.04;74.48;97964.66;5242962;28;20703;-61
2023/03/02 07:45:15;;;;;;;36.17;28.47;;;2.80;99.90;;;4.13;73.75;97968.72;5238277;28;20203;-61
2023/03/02 07:47:48;;;;;;;37.10;28.53;;;2.80;99.90;;;4.24;74.11;97965.44;5239207;28;20687;-61
2023/03/02 07:50:23;;;;;;;32.37;27.13;;;3.00;99.90;;;4.34;73.53;97964.53;5229744;28;20296;-61
2023/03/02 07:52:56;;;;;;;33.83;27.83;;;3.20;99.90;;;4.53;73.07;97962.78;5243238;28;20294;-61
2023/03/02 07:55:31;;;;;;;37.37;28.83;;;3.40;99.90;;;4.73;72.15;97967.81;5243464;28;20268;-61
2023/03/02 07:58:04;;;;;;;37.63;28.37;;;3.50;99.90;;;4.76;72.21;97972.25;5241811;28;20353;-61
2023/03/02 08:00:38;;;;;;;37.37;26.67;;;3.60;99.90;;;4.76;72.50;97971.34;5241185;28;20740;-62
2023/03/02 08:03:14;;;;;;;34.83;28.20;;;3.70;99.90;;;5.03;71.93;97975.22;5234806;28;20205;-62
2023/03/02 08:05:48;;;;;;;31.40;25.67;;;4.00;99.90;;;5.15;71.06;97966.03;5242411;28;20197;-62
2023/03/02 08:08:22;;;;;;;28.83;23.53;;;4.10;99.90;;;5.22;70.49;97964.91;5238365;28;20227;-61
2023/03/02 08:10:55;;;;;;;32.63;25.60;;;4.20;99.90;;;5.23;69.73;97967.53;5232621;28;20222;-62
2023/03/02 08:13:28;;;;;;;35.03;26.47;;;4.20;99.90;;;5.31;70.58;97966.50;5240333;28;20209;-62
2023/03/02 08:16:02;;;;;;;31.97;24.97;;;4.30;99.90;;;5.57;69.87;97976.16;5234768;28;20206;-61
2023/03/02 08:18:36;;;;;;;32.33;24.63;;;4.60;99.90;;;5.79;69.82;97971.09;5235554;28;20607;-62
2023/03/02 08:21:17;;;;;;;35.90;26.30;;;4.80;99.90;;;6.03;69.12;97978.84;5238018;28;20694;-61
2023/03/02 08:23:50;;;;;;;30.90;24.23;;;5.10;99.90;;;6.18;68.67;97964.81;5232232;28;20201;-61
2023/03/02 08:26:24;;;;;;;31.67;24.43;;;5.30;99.90;;;6.25;67.84;97967.00;5237178;28;20228;-62
2023/03/02 08:28:57;;;;;;;31.70;24.97;;;5.40;99.90;;;6.21;66.76;97965.03;5238446;28;20342;-62
2023/03/02 08:31:30;;;;;;;28.97;24.80;;;5.40;99.90;;;6.32;67.05;97956.56;5236643;28;20200;-62
2023/03/02 08:34:04;;;;;;;31.93;24.27;;;5.40;99.90;;;6.57;67.01;97960.03;5240697;28;20201;-62
2023/03/02 08:36:39;;;;;;;28.90;23.27;;;5.70;99.90;;;6.75;65.61;97961.38;5248324;28;20208;-62
2023/03/02 08:39:13;;;;;;;26.87;20.80;;;5.90;99.90;;;6.85;65.88;97952.78;5241411;28;20576;-62
2023/03/02 08:41:46;;;;;;;24.67;20.50;;;6.10;99.90;;;6.96;64.98;97945.16;5244359;28;20203;-62
2023/03/02 08:44:20;;;;;;;23.20;19.60;;;6.30;99.90;;;7.08;63.72;97942.63;5240722;28;20645;-61
2023/03/02 08:46:54;;;;;;;24.23;19.47;;;6.50;99.90;;;7.31;62.96;97941.72;5241068;28;20197;-61
2023/03/02 08:49:27;;;;;;;24.83;19.97;;;6.70;99.90;;;7.29;63.06;97935.63;5239244;28;20200;-61
2023/03/02 08:52:01;;;;;;;25.40;19.63;;;6.70;99.90;;;7.15;62.91;97932.13;5242620;28;20284;-61
2023/03/02 08:54:35;;;;;;;22.97;18.77;;;6.80;99.90;;;7.31;63.81;97930.66;5243699;28;20627;-61
2023/03/02 08:57:11;;;;;;;24.13;19.50;;;6.80;99.90;;;7.51;61.82;97934.59;5245774;28;20224;-62
2023/03/02 08:59:44;;;;;;;23.63;19.40;;;6.90;99.90;;;7.59;61.26;97930.94;5243842;28;20196;-62
2023/03/02 09:02:17;;;;;;;24.23;20.77;;;7.00;99.90;;;7.62;61.71;97929.50;5241549;28;20255;-62
2023/03/02 09:04:50;;;;;;;23.70;19.63;;;6.90;99.90;;;7.56;60.76;97934.16;5243269;28;20235;-62
2023/03/02 09:07:25;;;;;;;23.73;19.67;;;7.00;99.90;;;7.60;60.78;97922.53;5236856;28;20708;-62
2023/03/02 09:09:58;;;;;;;24.33;19.90;;;7.00;99.90;;;7.77;60.92;97921.16;5246488;28;20301;-62
2023/03/02 09:12:31;;;;;;;24.00;20.23;;;7.10;99.90;;;7.61;60.85;97922.66;5244428;28;20291;-62
2023/03/02 09:15:05;;;;;;;22.30;18.30;;;7.00;99.90;;;7.89;59.92;97915.22;5242640;28;20664;-61
2023/03/02 09:17:39;;;;;;;23.80;18.30;;;7.20;99.90;;;8.08;59.61;97911.41;5242627;28;20712;-61
2023/03/02 09:20:13;;;;;;;24.60;19.83;;;7.60;99.90;;;7.99;60.64;97909.13;5238958;28;20287;-62
2023/03/02 09:22:49;;;;;;;22.93;18.90;;;7.50;99.90;;;7.94;59.63;97919.75;5239618;28;20283;-62
2023/03/02 09:25:22;;;;;;;25.70;19.00;;;7.40;99.90;;;7.78;59.50;97915.28;5240849;28;20273;-62
2023/03/02 09:27:55;;;;;;;23.20;19.53;;;7.40;99.90;;;7.60;61.06;97915.78;5244506;28;20221;-62
2023/03/02 09:30:28;;;;;;;21.93;18.00;;;7.20;99.90;;;7.65;62.01;97913.56;5243365;28;20230;-62
2023/03/02 09:33:01;;;;;;;21.53;17.93;;;7.00;99.90;;;7.94;60.79;97915.53;5242498;28;20291;-62
2023/03/02 09:35:35;;;;;;;21.40;18.67;;;7.30;99.90;;;8.10;59.70;97915.81;5234898;28;20208;-62
2023/03/02 09:38:11;;;;;;;24.07;18.47;;;7.50;99.90;;;8.11;60.04;97917.56;5241459;28;20312;-62
2023/03/02 09:41:07;;;;;;;22.20;18.53;;;7.70;99.90;;;8.29;59.00;97912.81;5241316;28;20199;-61
2023/03/02 09:43:48;;;;;;;23.53;17.90;;;7.90;99.90;;;8.50;59.12;97915.06;5242698;28;20391;-62
2023/03/02 09:46:26;;;;;;;20.77;18.00;;;8.00;99.90;;;8.63;59.38;97919.28;5232844;28;20227;-62
2023/03/02 09:49:14;;;;;;;21.20;17.33;;;8.10;99.90;;;8.83;58.13;97918.91;5239476;28;20220;-62
2023/03/02 09:52:00;;;;;;;20.93;16.60;;;8.30;99.50;;;8.89;57.49;97918.44;5241895;28;20597;-62
2023/03/02 09:54:36;;;;;;;21.07;18.10;;;8.30;99.50;;;9.10;56.77;97919.81;5240963;28;20295;-61
2023/03/02 09:57:21;;;;;;;22.93;17.90;;;8.60;98.90;;;8.92;57.02;97922.06;5244832;28;20216;-62
2023/03/02 09:59:59;;;;;;;20.27;17.50;;;8.40;99.00;;;9.01;57.00;97924.31;5238361;28;20744;-61
2023/03/02 10:02:51;;;;;;;21.70;17.83;;;8.40;98.90;;;9.01;56.93;97917.56;5235018;28;20684;-62
2023/03/02 10:05:29;;;;;;;20.70;17.60;;;8.40;99.10;;;9.10;57.79;97919.81;5236210;28;20200;-62
2023/03/02 10:08:02;;;;;;;21.10;17.57;;;8.50;99.20;;;9.25;57.59;97927.56;5242655;28;20312;-62
2023/03/02 10:10:44;;;;;;;22.00;16.87;;;8.80;99.20;;;9.11;56.85;97926.69;5242230;28;20231;-62
2023/03/02 10:13:24;;;;;;;20.60;17.63;;;8.50;98.50;;;9.32;57.57;97929.69;5235386;28;20200;-64
2023/03/02 10:16:12;;;;;;;19.53;17.30;;;8.70;99.40;;;9.39;57.07;97924.19;5238670;28;20239;-62
2023/03/02 10:18:51;;;;;;;21.77;17.27;;;8.70;98.80;;;9.62;56.27;97922.19;5228925;28;20226;-62
2023/03/02 10:21:29;;;;;;;19.17;16.33;;;9.00;98.30;;;9.61;55.72;97928.06;5232728;28;20698;-61
2023/03/02 10:24:15;;;;;;;18.47;16.57;;;9.00;98.10;;;9.54;55.67;97933.59;5243284;28;20336;-62
2023/03/02 10:26:53;;;;;;;20.73;18.27;;;9.10;98.00;;;9.02;57.14;97936.28;5238718;28;20280;-62
2023/03/02 10:29:50;;;;;;;19.97;17.07;;;8.70;98.30;;;9.43;56.28;97931.25;5248257;28;20203;-62
2023/03/02 10:32:25;;;;;;;21.17;16.63;;;8.80;98.60;;;9.16;56.65;97929.53;5240014;28;20262;-62
2023/03/02 10:35:02;;;;;;;20.93;17.23;;;8.80;98.40;;;8.94;57.47;97928.16;5243881;28;20246;-62
2023/03/02 10:37:35;;;;;;;18.97;15.33;;;8.80;98.20;;;9.19;57.84;97914.41;5238340;28;20342;-62
2023/03/02 10:40:26;;;;;;;19.80;16.23;;;8.80;98.70;;;9.56;56.59;97926.94;5241008;28;20714;-61
2023/03/02 10:43:01;;;;;;;18.97;16.80;;;9.10;98.30;;;9.73;56.29;97921.19;5239922;28;20240;-62
2023/03/02 10:45:34;;;;;;;19.43;16.27;;;9.20;98.00;;;9.59;56.28;97919.47;5240211;28;20293;-62
2023/03/02 10:48:11;;;;;;;18.07;16.10;;;9.20;97.90;;;9.48;55.92;97922.22;5244151;28;20311;-61
2023/03/02 10:50:44;;;;;;;17.83;15.93;;;9.10;97.80;;;9.80;56.44;97915.66;5239501;28;20201;-62